createdAt,value
2023-03-28T00:01:29.048Z,99.90
2023-03-28T00:05:33.725Z,99.90
2023-03-28T00:09:37.694Z,99.90
2023-03-28T00:13:41.130Z,99.90
2023-03-28T00:17:44.966Z,99.90
2023-03-28T00:21:51.772Z,99.90
2023-03-28T00:25:56.419Z,99.90
2023-03-28T00:30:00.103Z,99.90
2023-03-28T00:34:03.518Z,99.90
2023-03-28T00:38:08.258Z,99.90
2023-03-28T00:42:15.542Z,99.90
2023-03-28T00:46:23.939Z,99.90
2023-03-28T00:50:30.889Z,99.90
2023-03-28T00:54:39.793Z,99.90
2023-03-28T00:58:45.293Z,99.90
2023-03-28T01:02:52.469Z,99.90
2023-03-28T01:06:59.068Z,99.90
2023-03-28T01:11:04.294Z,99.90
2023-03-28T01:15:10.074Z,99.90
2023-03-28T01:19:27.480Z,99.90
2023-03-28T01:24:11.506Z,99.90
2023-03-28T01:28:31.475Z,99.90
2023-03-28T01:33:28.767Z,99.90
2023-03-28T01:37:44.139Z,99.90
2023-03-28T01:42:01.771Z,99.90
2023-03-28T01:46:16.196Z,99.90
2023-03-28T01:50:24.158Z,99.90
2023-03-28T01:54:35.740Z,99.90
2023-03-28T01:58:46.705Z,99.90
2023-03-28T02:02:55.488Z,99.90
2023-03-28T02:06:59.731Z,99.90
2023-03-28T02:11:06.339Z,99.90
2023-03-28T02:15:14.332Z,99.90
2023-03-28T02:19:19.483Z,99.90
2023-03-28T02:23:28.598Z,99.90
2023-03-28T02:27:37.121Z,99.90
2023-03-28T02:31:41.715Z,99.90
2023-03-28T02:35:56.200Z,99.90
2023-03-28T02:40:16.278Z,99.90
2023-03-28T02:45:08.169Z,99.90
2023-03-28T02:49:50.432Z,99.90
2023-03-28T02:54:03.997Z,99.90
2023-03-28T02:58:11.002Z,99.90
2023-03-28T03:02:19.351Z,99.90
2023-03-28T03:06:24.513Z,99.90
2023-03-28T03:10:28.217Z,99.90
2023-03-28T03:14:32.166Z,99.90
2023-03-28T03:18:35.703Z,99.90
2023-03-28T03:22:41.616Z,99.90
2023-03-28T03:26:45.120Z,99.90
2023-03-28T03:30:49.025Z,99.90
2023-03-28T03:34:54.809Z,99.90
2023-03-28T03:39:00.098Z,99.90
2023-03-28T03:43:04.453Z,99.90
2023-03-28T03:47:08.129Z,99.90
2023-03-28T03:51:11.972Z,99.90
2023-03-28T03:55:18.227Z,99.90
2023-03-28T03:59:22.192Z,99.90
2023-03-28T04:03:26.829Z,99.90
2023-03-28T04:07:31.044Z,99.90
2023-03-28T04:11:35.947Z,99.90
2023-03-28T04:15:39.309Z,99.90
2023-03-28T04:19:43.913Z,99.90
2023-03-28T04:23:48.425Z,99.90
2023-03-28T04:27:54.850Z,99.90
2023-03-28T04:31:59.121Z,99.90
2023-03-28T04:36:03.182Z,99.90
2023-03-28T04:40:10.864Z,99.90
2023-03-28T04:44:16.011Z,99.90
2023-03-28T04:48:21.421Z,99.90
2023-03-28T04:52:27.045Z,99.90
2023-03-28T04:56:31.095Z,99.90
2023-03-28T05:00:37.034Z,99.90
2023-03-28T05:04:40.990Z,99.90
2023-03-28T05:08:46.109Z,99.90
2023-03-28T05:12:49.522Z,99.90
2023-03-28T05:16:56.170Z,99.90
2023-03-28T05:21:00.088Z,99.90
2023-03-28T05:25:04.458Z,99.90
2023-03-28T05:29:08.347Z,99.90
2023-03-28T05:33:15.192Z,99.90
2023-03-28T05:37:18.889Z,99.90
2023-03-28T05:41:23.336Z,99.90
2023-03-28T05:45:27.020Z,99.90
2023-03-28T05:49:32.319Z,99.90
2023-03-28T05:53:35.584Z,99.90
2023-03-28T05:57:38.917Z,99.90
2023-03-28T06:01:43.278Z,99.90
2023-03-28T06:05:50.739Z,99.90
2023-03-28T06:09:55.426Z,99.90
2023-03-28T06:14:00.580Z,99.90
2023-03-28T06:18:03.959Z,99.90
2023-03-28T06:22:08.920Z,99.90
2023-03-28T06:26:12.951Z,99.90
2023-03-28T06:30:17.186Z,99.90
2023-03-28T06:34:21.239Z,99.90
2023-03-28T06:38:26.366Z,99.90
2023-03-28T06:42:32.207Z,99.90
2023-03-28T06:46:35.981Z,99.90
2023-03-28T06:50:39.713Z,99.90
2023-03-28T06:54:48.039Z,99.90
2023-03-28T06:58:51.909Z,99.90
2023-03-28T07:02:56.033Z,99.90
2023-03-28T07:06:59.907Z,99.90
2023-03-28T07:11:05.051Z,99.90
2023-03-28T07:15:11.145Z,99.90
2023-03-28T07:19:14.847Z,99.90
2023-03-28T07:23:18.646Z,99.90
2023-03-28T07:27:24.950Z,97.40
2023-03-28T07:31:28.650Z,97.90
2023-03-28T07:35:34.037Z,95.60
2023-03-28T07:39:40.179Z,95.10
2023-03-28T07:43:49.509Z,94.90
2023-03-28T07:47:52.977Z,92.90
2023-03-28T07:51:56.697Z,91.60
2023-03-28T07:56:01.286Z,88.00
2023-03-28T08:00:13.427Z,87.10
2023-03-28T08:04:16.884Z,84.80
2023-03-28T08:08:21.801Z,82.80
2023-03-28T08:12:25.888Z,85.60
2023-03-28T08:16:32.359Z,85.60
2023-03-28T08:20:36.247Z,81.30
2023-03-28T08:24:40.611Z,79.40
2023-03-28T08:28:44.542Z,77.20
2023-03-28T08:32:51.934Z,79.30
2023-03-28T08:36:55.181Z,79.80
2023-03-28T08:41:05.536Z,77.50
2023-03-28T08:45:23.732Z,78.30
2023-03-28T08:49:30.502Z,75.90
2023-03-28T08:53:39.307Z,76.00
2023-03-28T08:57:43.918Z,74.30
2023-03-28T09:01:47.573Z,75.30
2023-03-28T09:05:55.560Z,72.80
2023-03-28T09:10:12.587Z,73.00
2023-03-28T09:14:52.342Z,72.70
2023-03-28T09:19:37.101Z,67.40
2023-03-28T09:24:22.149Z,67.50
2023-03-28T09:28:37.653Z,66.80
2023-03-28T09:32:42.743Z,66.00
2023-03-28T09:36:49.905Z,71.10
2023-03-28T09:40:59.089Z,66.30
2023-03-28T09:45:11.843Z,66.80
2023-03-28T09:49:19.069Z,68.60
2023-03-28T09:53:25.492Z,67.60
2023-03-28T09:58:09.152Z,66.20
2023-03-28T10:02:28.670Z,67.80
2023-03-28T10:06:33.825Z,62.10
2023-03-28T10:10:37.294Z,70.50
2023-03-28T10:14:48.200Z,73.10
2023-03-28T10:18:52.455Z,71.80
2023-03-28T10:23:04.437Z,69.50
2023-03-28T10:27:15.864Z,66.60
2023-03-28T10:31:29.707Z,62.90
2023-03-28T10:35:36.214Z,61.10
2023-03-28T10:39:39.582Z,61.30
2023-03-28T10:43:43.603Z,62.60
2023-03-28T10:47:50.672Z,60.90
2023-03-28T10:51:54.407Z,62.20
2023-03-28T10:56:11.259Z,58.60
2023-03-28T11:00:22.529Z,58.00
2023-03-28T11:04:39.296Z,60.30
2023-03-28T11:08:54.302Z,59.50
2023-03-28T11:13:24.521Z,57.70
2023-03-28T11:17:38.460Z,62.00
2023-03-28T11:21:54.060Z,63.60
2023-03-28T11:26:10.168Z,64.90
2023-03-28T11:30:18.210Z,67.60
2023-03-28T11:34:30.977Z,69.80
2023-03-28T11:38:38.909Z,68.50
2023-03-28T11:42:47.170Z,63.80
2023-03-28T11:46:55.931Z,62.90
2023-03-28T11:51:05.949Z,57.70
2023-03-28T11:55:20.649Z,60.00
2023-03-28T11:59:28.663Z,61.50
2023-03-28T12:03:37.428Z,61.70
2023-03-28T12:07:46.598Z,62.90
2023-03-28T12:11:57.383Z,59.40
2023-03-28T12:16:04.346Z,60.70
2023-03-28T12:20:13.929Z,56.90
2023-03-28T12:24:26.374Z,59.30
2023-03-28T12:28:39.905Z,54.80
2023-03-28T12:32:52.673Z,56.70
2023-03-28T12:37:04.363Z,56.50
2023-03-28T12:41:10.500Z,54.50
2023-03-28T12:45:20.895Z,55.10
2023-03-28T12:49:33.052Z,55.10
2023-03-28T12:53:42.192Z,54.00
2023-03-28T12:57:48.390Z,55.90
2023-03-28T13:01:57.066Z,54.50
2023-03-28T13:06:08.352Z,57.60
2023-03-28T13:10:21.786Z,53.60
2023-03-28T13:14:43.720Z,53.50
2023-03-28T13:18:50.173Z,53.90
2023-03-28T13:22:58.530Z,52.60
2023-03-28T13:27:05.352Z,53.70
2023-03-28T13:31:13.246Z,52.80
2023-03-28T13:35:46.063Z,52.20
2023-03-28T13:39:54.667Z,51.10
2023-03-28T13:44:01.964Z,51.50
2023-03-28T13:48:12.970Z,54.10
2023-03-28T13:52:22.165Z,50.80
2023-03-28T13:56:36.538Z,50.20
2023-03-28T14:00:40.902Z,53.10
2023-03-28T14:04:53.480Z,50.40
2023-03-28T14:09:02.338Z,52.70
2023-03-28T14:13:09.166Z,49.70
2023-03-28T14:17:17.398Z,50.10
2023-03-28T14:21:25.435Z,50.20
2023-03-28T14:25:31.706Z,52.10
2023-03-28T14:29:35.295Z,48.50
2023-03-28T14:33:40.106Z,53.40
2023-03-28T14:37:49.081Z,50.60
2023-03-28T14:41:56.133Z,50.70
2023-03-28T14:46:03.809Z,50.40
2023-03-28T14:50:08.997Z,51.70
2023-03-28T14:54:17.819Z,52.80
2023-03-28T14:58:25.803Z,48.70
2023-03-28T15:02:35.189Z,51.70
2023-03-28T15:06:39.729Z,56.20
2023-03-28T15:10:50.526Z,59.10
2023-03-28T15:14:55.465Z,60.70
2023-03-28T15:19:07.161Z,59.60
2023-03-28T15:23:17.185Z,60.00
2023-03-28T15:27:27.215Z,63.60
2023-03-28T15:31:33.229Z,61.50
2023-03-28T15:35:40.243Z,60.90
2023-03-28T15:39:44.063Z,62.80
2023-03-28T15:44:02.011Z,62.40
2023-03-28T15:48:10.834Z,63.20
2023-03-28T15:52:20.186Z,62.10
2023-03-28T15:56:26.486Z,62.80
2023-03-28T16:00:44.704Z,63.10
2023-03-28T16:05:03.814Z,64.80
2023-03-28T16:09:20.504Z,64.50
2023-03-28T16:13:24.201Z,63.50
2023-03-28T16:17:29.377Z,63.60
2023-03-28T16:21:34.230Z,63.40
2023-03-28T16:25:38.809Z,65.20
2023-03-28T16:29:43.441Z,67.30
2023-03-28T16:33:47.144Z,64.90
2023-03-28T16:37:52.640Z,68.10
2023-03-28T16:41:56.278Z,68.20
2023-03-28T16:46:00.107Z,68.90
2023-03-28T16:50:04.939Z,67.30
2023-03-28T16:54:10.355Z,69.10
2023-03-28T16:58:15.486Z,70.80
2023-03-28T17:02:19.173Z,70.70
2023-03-28T17:06:23.367Z,69.70
2023-03-28T17:10:29.657Z,71.40
2023-03-28T17:14:33.328Z,71.70
2023-03-28T17:18:37.887Z,71.20
2023-03-28T17:22:43.582Z,71.60
2023-03-28T17:26:49.828Z,71.60
2023-03-28T17:30:56.413Z,71.90
2023-03-28T17:35:03.722Z,72.10
2023-03-28T17:39:10.245Z,75.30
2023-03-28T17:43:18.872Z,75.60
2023-03-28T17:47:25.651Z,75.30
2023-03-28T17:51:37.107Z,76.00
2023-03-28T17:55:47.679Z,77.10
2023-03-28T18:00:13.067Z,78.00
2023-03-28T18:04:32.638Z,79.10
2023-03-28T18:08:58.407Z,81.90
2023-03-28T18:13:24.337Z,83.10
2023-03-28T18:23:23.525Z,84.70
2023-03-28T18:27:36.251Z,86.50
2023-03-28T18:31:49.354Z,87.70
2023-03-28T18:36:16.945Z,88.30
2023-03-28T18:40:25.175Z,88.40
2023-03-28T18:49:48.114Z,90.70
2023-03-28T18:54:16.614Z,90.90
2023-03-28T18:58:33.775Z,90.40
2023-03-28T19:02:41.835Z,91.40
2023-03-28T19:06:51.550Z,91.80
2023-03-28T19:11:02.471Z,92.30
2023-03-28T19:15:12.531Z,92.30
2023-03-28T19:19:20.244Z,92.30
2023-03-28T19:23:35.557Z,92.30
2023-03-28T19:27:50.878Z,92.30
2023-03-28T19:32:02.465Z,92.60
2023-03-28T19:36:13.863Z,92.30
2023-03-28T19:40:20.122Z,92.90
2023-03-28T19:44:42.982Z,92.80
2023-03-28T19:48:49.174Z,92.90
2023-03-28T19:52:54.781Z,93.40
2023-03-28T19:57:00.965Z,93.80
2023-03-28T20:01:09.331Z,94.10
2023-03-28T20:05:15.020Z,94.10
2023-03-28T20:09:24.372Z,94.70
2023-03-28T20:13:30.143Z,95.30
2023-03-28T20:17:36.941Z,95.50
2023-03-28T20:21:41.951Z,94.90
2023-03-28T20:25:48.022Z,95.70
2023-03-28T20:29:56.735Z,95.20
2023-03-28T20:34:04.164Z,92.20
2023-03-28T20:38:10.825Z,92.30
2023-03-28T20:42:14.569Z,91.60
2023-03-28T20:46:20.031Z,92.30
2023-03-28T20:50:34.178Z,92.30
2023-03-28T20:54:38.288Z,93.00
2023-03-28T20:58:42.836Z,93.10
2023-03-28T21:02:54.010Z,93.60
2023-03-28T21:07:01.910Z,94.00
2023-03-28T21:11:06.400Z,94.60
2023-03-28T21:15:11.615Z,95.10
2023-03-28T21:19:14.937Z,95.40
2023-03-28T21:23:20.108Z,95.30
2023-03-28T21:27:23.638Z,96.00
2023-03-28T21:31:29.247Z,96.50
2023-03-28T21:35:32.701Z,96.70
2023-03-28T21:39:39.445Z,96.70
2023-03-28T21:43:43.024Z,96.80
2023-03-28T21:47:46.701Z,97.10
2023-03-28T21:51:52.996Z,96.50
2023-03-28T21:55:59.607Z,96.00
2023-03-28T22:00:06.365Z,94.70
2023-03-28T22:04:09.948Z,94.60
2023-03-28T22:08:14.338Z,93.20
2023-03-28T22:12:22.971Z,92.10
2023-03-28T22:16:26.371Z,91.50
2023-03-28T22:20:30.446Z,91.70
2023-03-28T22:24:34.108Z,92.80
2023-03-28T22:28:39.360Z,93.30
2023-03-28T22:32:42.935Z,93.80
2023-03-28T22:36:46.257Z,94.10
2023-03-28T22:40:49.842Z,94.80
2023-03-28T22:44:54.959Z,95.30
2023-03-28T22:49:00.688Z,95.40
2023-03-28T22:53:04.767Z,95.60
2023-03-28T22:57:08.395Z,96.00
2023-03-28T23:01:14.390Z,96.00
